Abingdon, IL

5:40 PM CST on February 28, 2015 (GMT -0600)
Galesburg Municipal | Change Station
CLOSE
Current Station
Airport
Location: Galesburg,
Elevation: 764 ft
Nearby Weather Stations

Elev 764 ft 40.94 °N, 90.43 °W | Updated 25 minutes ago

Overcast
Overcast
19 °F
Feels Like 19 °F
N
0
Wind Variable Wind from North

Today
High -- | Low -- °F
--% Chance of Precip.
Yesterday
High -- | Low -- °F
Precip. -- in
6:37 AM 5:51 PM
Waxing Gibbous, 81% visible
Pressure 30.49 in
Visibility 1.0 miles
Clouds Overcast 1700 ft
Dew Point 17 °F
Humidity 89%
Rainfall 0.00 in
Snow Depth Not available.
UV 0 out of 12
Pollen .50 out of 12
Air Quality Not available.
Flu Activity Not available.
METAR KGBG 282315Z AUTO 00000KT 1SM -SN OVC017 M07/M08 A3049 RMK AO2 T10701085

More Conditions Fewer Conditions

Pressure 30.49 in
Visibility 1.0 miles
Clouds Overcast 1700 ft
Dew Point 17 °F
Humidity 89%
Rainfall 0.00 in
Snow Depth Not available.
UV 0 out of 12
Pollen .50 out of 12
Air Quality Not available.
Flu Activity Not available.
METAR KGBG 282315Z AUTO 00000KT 1SM -SN OVC017 M07/M08 A3049 RMK AO2 T10701085

More Conditions Fewer Conditions

10-Day Weather Forecast

Almanac

Astronomy

Feb. 28, 2015 Rise Set
Actual Time
Civil Twilight
Nautical Twilight
Astronomical Twilight
Moon
Length of Visible Light
Length of Day
Tomorrow will be .
, % of the Moon is Illuminated

Today's Extremes

State Highs State Lows

Community

WunderPhotos

Upload Photos

1,801,176 photos uploaded!

WunderBlogs® & News

Nearby

Air Quality

  Air Quality AQ Index Pollutant
Not available.

Snow Depth

Station Depth Elevation

Earthquake Activity

City Distance Mag. Time & Date
Minimum magnitude displayed is 2.5.

Coastal Water Temperatures

Place Temperature

Nearby Weather Stations